sensor_id;sensor_type;location;lat;lon;timestamp;temperature;humidity
11540;DHT22;5826;54.756;9.192;2022-07-09T00:00:05;16.50;99.90
11540;DHT22;5826;54.756;9.192;2022-07-09T00:02:31;16.50;99.90
11540;DHT22;5826;54.756;9.192;2022-07-09T00:04:57;16.50;99.90
11540;DHT22;5826;54.756;9.192;2022-07-09T00:07:22;16.50;99.90
11540;DHT22;5826;54.756;9.192;2022-07-09T00:09:48;16.50;99.90
11540;DHT22;5826;54.756;9.192;2022-07-09T00:12:13;16.50;99.90
11540;DHT22;5826;54.756;9.192;2022-07-09T00:14:39;16.50;99.90
11540;DHT22;5826;54.756;9.192;2022-07-09T00:17:04;16.50;99.90
11540;DHT22;5826;54.756;9.192;2022-07-09T00:19:30;16.50;99.90
11540;DHT22;5826;54.756;9.192;2022-07-09T00:21:55;16.50;99.90
11540;DHT22;5826;54.756;9.192;2022-07-09T00:24:21;16.50;99.90
11540;DHT22;5826;54.756;9.192;2022-07-09T00:26:46;16.50;99.90
11540;DHT22;5826;54.756;9.192;2022-07-09T00:29:12;16.40;99.90
11540;DHT22;5826;54.756;9.192;2022-07-09T00:31:37;16.40;99.90
11540;DHT22;5826;54.756;9.192;2022-07-09T00:34:03;16.50;99.90
11540;DHT22;5826;54.756;9.192;2022-07-09T00:36:28;16.50;99.90
11540;DHT22;5826;54.756;9.192;2022-07-09T00:38:54;16.50;99.90
11540;DHT22;5826;54.756;9.192;2022-07-09T00:41:19;16.40;99.90
11540;DHT22;5826;54.756;9.192;2022-07-09T00:43:49;16.40;99.90
11540;DHT22;5826;54.756;9.192;2022-07-09T00:46:16;16.40;99.90
11540;DHT22;5826;54.756;9.192;2022-07-09T00:48:42;16.40;99.90
11540;DHT22;5826;54.756;9.192;2022-07-09T00:51:08;16.40;99.90
11540;DHT22;5826;54.756;9.192;2022-07-09T00:53:34;16.40;99.90
11540;DHT22;5826;54.756;9.192;2022-07-09T00:56:00;16.40;99.90
11540;DHT22;5826;54.756;9.192;2022-07-09T00:58:26;16.40;99.90
11540;DHT22;5826;54.756;9.192;2022-07-09T01:00:53;16.40;99.90
11540;DHT22;5826;54.756;9.192;2022-07-09T01:03:19;16.40;99.90
11540;DHT22;5826;54.756;9.192;2022-07-09T01:05:45;16.40;99.90
11540;DHT22;5826;54.756;9.192;2022-07-09T01:08:10;16.40;99.90
11540;DHT22;5826;54.756;9.192;2022-07-09T01:10:36;16.40;99.90
11540;DHT22;5826;54.756;9.192;2022-07-09T01:13:03;16.40;99.90
11540;DHT22;5826;54.756;9.192;2022-07-09T01:15:29;16.40;99.90
11540;DHT22;5826;54.756;9.192;2022-07-09T01:17:55;16.40;99.90
11540;DHT22;5826;54.756;9.192;2022-07-09T01:20:23;16.40;99.90
11540;DHT22;5826;54.756;9.192;2022-07-09T01:22:49;16.50;99.90
11540;DHT22;5826;54.756;9.192;2022-07-09T01:25:17;16.50;99.90
11540;DHT22;5826;54.756;9.192;2022-07-09T01:27:42;16.50;99.90
11540;DHT22;5826;54.756;9.192;2022-07-09T01:30:08;16.50;99.90
11540;DHT22;5826;54.756;9.192;2022-07-09T01:32:34;16.50;99.90
11540;DHT22;5826;54.756;9.192;2022-07-09T01:34:59;16.40;99.90
11540;DHT22;5826;54.756;9.192;2022-07-09T01:37:25;16.50;99.90
11540;DHT22;5826;54.756;9.192;2022-07-09T01:39:51;16.50;99.90
11540;DHT22;5826;54.756;9.192;2022-07-09T01:42:19;16.50;99.90
11540;DHT22;5826;54.756;9.192;2022-07-09T01:44:46;16.50;99.90
11540;DHT22;5826;54.756;9.192;2022-07-09T01:47:11;16.50;99.90
11540;DHT22;5826;54.756;9.192;2022-07-09T01:49:40;16.50;99.90
11540;DHT22;5826;54.756;9.192;2022-07-09T01:52:05;16.50;99.90
11540;DHT22;5826;54.756;9.192;2022-07-09T01:54:31;16.50;99.90
11540;DHT22;5826;54.756;9.192;2022-07-09T01:56:56;16.50;99.90
11540;DHT22;5826;54.756;9.192;2022-07-09T01:59:22;16.50;99.90
11540;DHT22;5826;54.756;9.192;2022-07-09T02:01:48;16.50;99.90
11540;DHT22;5826;54.756;9.192;2022-07-09T02:04:13;16.50;99.90
11540;DHT22;5826;54.756;9.192;2022-07-09T02:06:39;16.50;99.90
11540;DHT22;5826;54.756;9.192;2022-07-09T02:09:04;16.50;99.90
11540;DHT22;5826;54.756;9.192;2022-07-09T02:11:30;16.50;99.90
11540;DHT22;5826;54.756;9.192;2022-07-09T02:13:55;16.50;99.90
11540;DHT22;5826;54.756;9.192;2022-07-09T02:16:21;16.50;99.90
11540;DHT22;5826;54.756;9.192;2022-07-09T02:18:46;16.50;99.90
11540;DHT22;5826;54.756;9.192;2022-07-09T02:21:12;16.50;99.90
11540;DHT22;5826;54.756;9.192;2022-07-09T02:23:37;16.50;99.90
11540;DHT22;5826;54.756;9.192;2022-07-09T02:26:03;16.50;99.90
11540;DHT22;5826;54.756;9.192;2022-07-09T02:28:28;16.50;99.90
11540;DHT22;5826;54.756;9.192;2022-07-09T02:30:54;16.50;99.90
11540;DHT22;5826;54.756;9.192;2022-07-09T02:33:20;16.50;99.90
11540;DHT22;5826;54.756;9.192;2022-07-09T02:35:46;16.50;99.90
11540;DHT22;5826;54.756;9.192;2022-07-09T02:38:11;16.50;99.90
11540;DHT22;5826;54.756;9.192;2022-07-09T02:40:37;16.50;99.90
11540;DHT22;5826;54.756;9.192;2022-07-09T02:43:02;16.50;99.90
11540;DHT22;5826;54.756;9.192;2022-07-09T02:45:28;16.50;99.90
11540;DHT22;5826;54.756;9.192;2022-07-09T02:47:53;16.50;99.90
11540;DHT22;5826;54.756;9.192;2022-07-09T02:50:19;16.50;99.90
11540;DHT22;5826;54.756;9.192;2022-07-09T02:52:45;16.50;99.90
11540;DHT22;5826;54.756;9.192;2022-07-09T02:55:10;16.50;99.90
11540;DHT22;5826;54.756;9.192;2022-07-09T02:57:36;16.50;99.90
11540;DHT22;5826;54.756;9.192;2022-07-09T03:00:03;16.50;99.90
11540;DHT22;5826;54.756;9.192;2022-07-09T03:02:28;16.50;99.90
11540;DHT22;5826;54.756;9.192;2022-07-09T03:04:54;16.50;99.90
11540;DHT22;5826;54.756;9.192;2022-07-09T03:07:19;16.50;99.90
11540;DHT22;5826;54.756;9.192;2022-07-09T03:09:45;16.50;99.90
11540;DHT22;5826;54.756;9.192;2022-07-09T03:12:10;16.50;99.90
11540;DHT22;5826;54.756;9.192;2022-07-09T03:14:36;16.50;99.90
11540;DHT22;5826;54.756;9.192;2022-07-09T03:17:01;16.50;99.90
11540;DHT22;5826;54.756;9.192;2022-07-09T03:19:27;16.50;99.90
11540;DHT22;5826;54.756;9.192;2022-07-09T03:21:52;16.60;99.90
11540;DHT22;5826;54.756;9.192;2022-07-09T03:24:18;16.50;99.90
11540;DHT22;5826;54.756;9.192;2022-07-09T03:26:43;16.50;99.90
11540;DHT22;5826;54.756;9.192;2022-07-09T03:29:09;16.50;99.90
11540;DHT22;5826;54.756;9.192;2022-07-09T03:31:34;16.50;99.90
11540;DHT22;5826;54.756;9.192;2022-07-09T03:34:00;16.50;99.90
11540;DHT22;5826;54.756;9.192;2022-07-09T03:36:25;16.60;99.90
11540;DHT22;5826;54.756;9.192;2022-07-09T03:38:51;16.60;99.90
11540;DHT22;5826;54.756;9.192;2022-07-09T03:41:16;16.60;99.90
11540;DHT22;5826;54.756;9.192;2022-07-09T03:43:42;16.60;99.90
11540;DHT22;5826;54.756;9.192;2022-07-09T03:46:07;16.60;99.90
11540;DHT22;5826;54.756;9.192;2022-07-09T03:48:33;16.60;99.90
11540;DHT22;5826;54.756;9.192;2022-07-09T03:50:59;16.60;99.90
11540;DHT22;5826;54.756;9.192;2022-07-09T03:53:25;16.60;99.90
11540;DHT22;5826;54.756;9.192;2022-07-09T03:55:50;16.60;99.90
11540;DHT22;5826;54.756;9.192;2022-07-09T03:58:16;16.60;99.90
11540;DHT22;5826;54.756;9.192;2022-07-09T04:00:41;16.60;99.90
11540;DHT22;5826;54.756;9.192;2022-07-09T04:03:07;16.60;99.90
11540;DHT22;5826;54.756;9.192;2022-07-09T04:05:33;16.60;99.90
11540;DHT22;5826;54.756;9.192;2022-07-09T04:07:58;16.60;99.90
11540;DHT22;5826;54.756;9.192;2022-07-09T04:10:24;16.50;99.90
11540;DHT22;5826;54.756;9.192;2022-07-09T04:12:49;16.50;99.90
11540;DHT22;5826;54.756;9.192;2022-07-09T04:15:15;16.50;99.90
11540;DHT22;5826;54.756;9.192;2022-07-09T04:17:40;16.60;99.90
11540;DHT22;5826;54.756;9.192;2022-07-09T04:20:06;16.60;99.90
11540;DHT22;5826;54.756;9.192;2022-07-09T04:22:32;16.70;99.90
11540;DHT22;5826;54.756;9.192;2022-07-09T04:24:57;16.80;99.90
11540;DHT22;5826;54.756;9.192;2022-07-09T04:27:23;16.80;99.90
11540;DHT22;5826;54.756;9.192;2022-07-09T04:29:48;16.90;99.90
11540;DHT22;5826;54.756;9.192;2022-07-09T04:32:14;16.90;99.90
11540;DHT22;5826;54.756;9.192;2022-07-09T04:34:41;16.80;99.90
11540;DHT22;5826;54.756;9.192;2022-07-09T04:37:06;16.80;99.90
11540;DHT22;5826;54.756;9.192;2022-07-09T04:39:32;16.80;99.90
11540;DHT22;5826;54.756;9.192;2022-07-09T04:41:58;16.80;99.90
11540;DHT22;5826;54.756;9.192;2022-07-09T04:44:23;16.90;99.90
11540;DHT22;5826;54.756;9.192;2022-07-09T04:46:49;16.90;99.90
11540;DHT22;5826;54.756;9.192;2022-07-09T04:49:14;17.00;99.90
11540;DHT22;5826;54.756;9.192;2022-07-09T04:51:40;17.00;99.90
11540;DHT22;5826;54.756;9.192;2022-07-09T04:54:06;17.00;99.90
11540;DHT22;5826;54.756;9.192;2022-07-09T04:56:31;17.00;99.90
11540;DHT22;5826;54.756;9.192;2022-07-09T04:58:57;17.00;99.90
11540;DHT22;5826;54.756;9.192;2022-07-09T05:01:24;17.10;99.90
11540;DHT22;5826;54.756;9.192;2022-07-09T05:03:50;17.10;99.90
11540;DHT22;5826;54.756;9.192;2022-07-09T05:06:16;17.10;99.90
11540;DHT22;5826;54.756;9.192;2022-07-09T05:08:42;17.10;99.90
11540;DHT22;5826;54.756;9.192;2022-07-09T05:11:08;17.10;99.90
11540;DHT22;5826;54.756;9.192;2022-07-09T05:13:35;17.20;99.90
11540;DHT22;5826;54.756;9.192;2022-07-09T05:16:01;17.20;99.90
11540;DHT22;5826;54.756;9.192;2022-07-09T05:18:27;17.20;99.90
11540;DHT22;5826;54.756;9.192;2022-07-09T05:20:54;17.20;99.90
11540;DHT22;5826;54.756;9.192;2022-07-09T05:23:20;17.20;99.90
11540;DHT22;5826;54.756;9.192;2022-07-09T05:25:45;17.20;99.90
11540;DHT22;5826;54.756;9.192;2022-07-09T05:28:11;17.20;99.90
11540;DHT22;5826;54.756;9.192;2022-07-09T05:30:36;17.30;99.90
11540;DHT22;5826;54.756;9.192;2022-07-09T05:33:03;17.30;99.90
11540;DHT22;5826;54.756;9.192;2022-07-09T05:35:29;17.30;99.90
11540;DHT22;5826;54.756;9.192;2022-07-09T05:37:55;17.30;99.90
11540;DHT22;5826;54.756;9.192;2022-07-09T05:40:20;17.30;99.90
11540;DHT22;5826;54.756;9.192;2022-07-09T05:42:46;17.40;99.90
11540;DHT22;5826;54.756;9.192;2022-07-09T05:45:12;17.30;99.90
11540;DHT22;5826;54.756;9.192;2022-07-09T05:47:37;17.30;99.90
11540;DHT22;5826;54.756;9.192;2022-07-09T05:50:03;17.40;99.90
11540;DHT22;5826;54.756;9.192;2022-07-09T05:52:29;17.40;99.90
11540;DHT22;5826;54.756;9.192;2022-07-09T05:54:54;17.50;99.90
11540;DHT22;5826;54.756;9.192;2022-07-09T05:57:20;17.50;99.90
11540;DHT22;5826;54.756;9.192;2022-07-09T05:59:45;17.50;99.90
11540;DHT22;5826;54.756;9.192;2022-07-09T06:02:10;17.60;99.90
11540;DHT22;5826;54.756;9.192;2022-07-09T06:04:36;17.60;99.90
11540;DHT22;5826;54.756;9.192;2022-07-09T06:07:02;17.70;99.90
11540;DHT22;5826;54.756;9.192;2022-07-09T06:09:27;17.70;99.90
11540;DHT22;5826;54.756;9.192;2022-07-09T06:11:53;17.80;99.90
11540;DHT22;5826;54.756;9.192;2022-07-09T06:14:18;17.80;99.90
11540;DHT22;5826;54.756;9.192;2022-07-09T06:16:45;17.80;99.90
11540;DHT22;5826;54.756;9.192;2022-07-09T06:19:12;17.90;99.90
11540;DHT22;5826;54.756;9.192;2022-07-09T06:21:38;18.00;99.90
11540;DHT22;5826;54.756;9.192;2022-07-09T06:24:05;18.00;99.90
11540;DHT22;5826;54.756;9.192;2022-07-09T06:26:30;18.00;99.90
11540;DHT22;5826;54.756;9.192;2022-07-09T06:28:56;18.00;99.90
11540;DHT22;5826;54.756;9.192;2022-07-09T06:31:22;18.00;99.90
11540;DHT22;5826;54.756;9.192;2022-07-09T06:33:48;18.00;99.90
11540;DHT22;5826;54.756;9.192;2022-07-09T06:36:14;18.00;99.90
11540;DHT22;5826;54.756;9.192;2022-07-09T06:38:39;18.10;99.90
11540;DHT22;5826;54.756;9.192;2022-07-09T06:41:23;18.10;99.90
11540;DHT22;5826;54.756;9.192;2022-07-09T06:43:49;18.10;99.90
11540;DHT22;5826;54.756;9.192;2022-07-09T06:46:14;18.10;99.90
11540;DHT22;5826;54.756;9.192;2022-07-09T06:48:40;18.10;99.90
11540;DHT22;5826;54.756;9.192;2022-07-09T06:51:05;18.10;99.90
11540;DHT22;5826;54.756;9.192;2022-07-09T06:53:31;18.10;99.90
11540;DHT22;5826;54.756;9.192;2022-07-09T06:55:56;18.20;99.90
11540;DHT22;5826;54.756;9.192;2022-07-09T06:58:22;18.30;99.90
11540;DHT22;5826;54.756;9.192;2022-07-09T07:00:47;18.40;99.90
11540;DHT22;5826;54.756;9.192;2022-07-09T07:03:13;18.50;99.90
11540;DHT22;5826;54.756;9.192;2022-07-09T07:05:40;18.60;99.90
11540;DHT22;5826;54.756;9.192;2022-07-09T07:08:05;18.70;99.90
11540;DHT22;5826;54.756;9.192;2022-07-09T07:10:30;18.70;99.90
11540;DHT22;5826;54.756;9.192;2022-07-09T07:12:56;18.60;99.90
11540;DHT22;5826;54.756;9.192;2022-07-09T07:15:21;18.60;99.90
11540;DHT22;5826;54.756;9.192;2022-07-09T07:17:47;18.50;99.90
11540;DHT22;5826;54.756;9.192;2022-07-09T07:20:14;18.40;99.90
11540;DHT22;5826;54.756;9.192;2022-07-09T07:22:40;18.40;99.90
11540;DHT22;5826;54.756;9.192;2022-07-09T07:25:05;18.30;99.90
11540;DHT22;5826;54.756;9.192;2022-07-09T07:27:31;18.20;99.90
11540;DHT22;5826;54.756;9.192;2022-07-09T07:29:57;18.20;99.90
11540;DHT22;5826;54.756;9.192;2022-07-09T07:32:22;18.20;99.90
11540;DHT22;5826;54.756;9.192;2022-07-09T07:34:48;18.30;99.90
11540;DHT22;5826;54.756;9.192;2022-07-09T07:37:13;18.40;99.90
11540;DHT22;5826;54.756;9.192;2022-07-09T07:39:39;18.40;99.90
11540;DHT22;5826;54.756;9.192;2022-07-09T07:42:05;18.50;99.90
11540;DHT22;5826;54.756;9.192;2022-07-09T07:44:32;18.60;99.90
11540;DHT22;5826;54.756;9.192;2022-07-09T07:46:58;18.60;99.90
11540;DHT22;5826;54.756;9.192;2022-07-09T07:49:23;18.70;99.90
11540;DHT22;5826;54.756;9.192;2022-07-09T07:51:49;18.70;99.90
11540;DHT22;5826;54.756;9.192;2022-07-09T07:54:14;18.80;99.90
11540;DHT22;5826;54.756;9.192;2022-07-09T07:56:40;18.80;99.90
11540;DHT22;5826;54.756;9.192;2022-07-09T07:59:06;18.70;99.90
11540;DHT22;5826;54.756;9.192;2022-07-09T08:01:32;18.60;99.90
11540;DHT22;5826;54.756;9.192;2022-07-09T08:03:57;18.40;99.90
11540;DHT22;5826;54.756;9.192;2022-07-09T08:06:23;18.20;99.90
11540;DHT22;5826;54.756;9.192;2022-07-09T08:08:49;18.10;99.90
11540;DHT22;5826;54.756;9.192;2022-07-09T08:11:14;17.90;99.90
11540;DHT22;5826;54.756;9.192;2022-07-09T08:13:40;18.00;99.90
11540;DHT22;5826;54.756;9.192;2022-07-09T08:16:06;18.00;99.90
11540;DHT22;5826;54.756;9.192;2022-07-09T08:18:31;18.20;99.90
11540;DHT22;5826;54.756;9.192;2022-07-09T08:20:57;18.30;99.90
11540;DHT22;5826;54.756;9.192;2022-07-09T08:23:23;18.50;99.90
11540;DHT22;5826;54.756;9.192;2022-07-09T08:25:48;18.60;99.90
11540;DHT22;5826;54.756;9.192;2022-07-09T08:28:15;18.50;99.90
11540;DHT22;5826;54.756;9.192;2022-07-09T08:30:41;18.40;99.90
11540;DHT22;5826;54.756;9.192;2022-07-09T08:33:06;18.30;99.90
11540;DHT22;5826;54.756;9.192;2022-07-09T08:35:32;18.30;99.90
11540;DHT22;5826;54.756;9.192;2022-07-09T08:37:58;18.30;99.90
11540;DHT22;5826;54.756;9.192;2022-07-09T08:40:25;18.40;99.90
11540;DHT22;5826;54.756;9.192;2022-07-09T08:42:53;18.60;99.90
11540;DHT22;5826;54.756;9.192;2022-07-09T08:45:20;18.80;99.90
11540;DHT22;5826;54.756;9.192;2022-07-09T08:47:46;18.90;99.90
11540;DHT22;5826;54.756;9.192;2022-07-09T08:50:13;18.90;99.90
11540;DHT22;5826;54.756;9.192;2022-07-09T08:52:40;18.90;99.90
11540;DHT22;5826;54.756;9.192;2022-07-09T08:55:07;19.00;99.90
11540;DHT22;5826;54.756;9.192;2022-07-09T08:57:34;19.10;99.90
11540;DHT22;5826;54.756;9.192;2022-07-09T09:00:00;19.20;99.90
11540;DHT22;5826;54.756;9.192;2022-07-09T09:02:34;19.20;99.90
11540;DHT22;5826;54.756;9.192;2022-07-09T09:05:05;19.00;99.90
11540;DHT22;5826;54.756;9.192;2022-07-09T09:07:30;18.80;99.90
11540;DHT22;5826;54.756;9.192;2022-07-09T09:09:56;18.70;99.90
11540;DHT22;5826;54.756;9.192;2022-07-09T09:12:27;18.90;99.90
11540;DHT22;5826;54.756;9.192;2022-07-09T09:14:53;19.00;99.90
11540;DHT22;5826;54.756;9.192;2022-07-09T09:17:19;19.00;99.90
11540;DHT22;5826;54.756;9.192;2022-07-09T09:19:44;19.10;99.90
11540;DHT22;5826;54.756;9.192;2022-07-09T09:22:10;19.00;99.90
11540;DHT22;5826;54.756;9.192;2022-07-09T09:24:35;19.10;99.90
11540;DHT22;5826;54.756;9.192;2022-07-09T09:27:01;19.20;99.90
11540;DHT22;5826;54.756;9.192;2022-07-09T09:29:27;19.10;99.90
11540;DHT22;5826;54.756;9.192;2022-07-09T09:31:54;19.20;99.90
11540;DHT22;5826;54.756;9.192;2022-07-09T09:34:20;19.30;99.90
11540;DHT22;5826;54.756;9.192;2022-07-09T09:36:47;19.30;99.90
11540;DHT22;5826;54.756;9.192;2022-07-09T09:41:41;19.30;99.90
11540;DHT22;5826;54.756;9.192;2022-07-09T09:44:10;19.30;99.90
11540;DHT22;5826;54.756;9.192;2022-07-09T09:46:38;19.40;99.90
11540;DHT22;5826;54.756;9.192;2022-07-09T09:49:06;19.60;99.90
11540;DHT22;5826;54.756;9.192;2022-07-09T09:51:35;19.70;99.90
11540;DHT22;5826;54.756;9.192;2022-07-09T09:54:03;19.80;99.90
11540;DHT22;5826;54.756;9.192;2022-07-09T09:56:29;19.90;99.90
11540;DHT22;5826;54.756;9.192;2022-07-09T09:58:55;19.80;99.90
11540;DHT22;5826;54.756;9.192;2022-07-09T10:01:21;19.70;99.90
11540;DHT22;5826;54.756;9.192;2022-07-09T10:03:48;19.50;99.90
11540;DHT22;5826;54.756;9.192;2022-07-09T10:06:14;19.50;99.90
11540;DHT22;5826;54.756;9.192;2022-07-09T10:08:40;19.70;99.90
11540;DHT22;5826;54.756;9.192;2022-07-09T10:11:05;19.80;99.90
11540;DHT22;5826;54.756;9.192;2022-07-09T10:13:32;20.00;99.90
11540;DHT22;5826;54.756;9.192;2022-07-09T10:15:58;20.20;99.90
11540;DHT22;5826;54.756;9.192;2022-07-09T10:18:24;20.30;99.90
11540;DHT22;5826;54.756;9.192;2022-07-09T10:20:58;20.50;99.90
11540;DHT22;5826;54.756;9.192;2022-07-09T10:23:24;20.50;99.90
11540;DHT22;5826;54.756;9.192;2022-07-09T10:25:50;20.50;99.90
11540;DHT22;5826;54.756;9.192;2022-07-09T10:28:19;20.50;99.90
11540;DHT22;5826;54.756;9.192;2022-07-09T10:30:45;20.50;99.90
11540;DHT22;5826;54.756;9.192;2022-07-09T10:35:43;20.70;99.90
11540;DHT22;5826;54.756;9.192;2022-07-09T10:38:09;20.70;99.90
11540;DHT22;5826;54.756;9.192;2022-07-09T10:40:40;20.70;99.90
11540;DHT22;5826;54.756;9.192;2022-07-09T10:43:06;20.70;99.90
11540;DHT22;5826;54.756;9.192;2022-07-09T10:45:35;20.70;99.90
11540;DHT22;5826;54.756;9.192;2022-07-09T10:48:03;20.80;99.90
11540;DHT22;5826;54.756;9.192;2022-07-09T10:50:31;20.90;99.90
11540;DHT22;5826;54.756;9.192;2022-07-09T10:52:57;21.00;99.90
11540;DHT22;5826;54.756;9.192;2022-07-09T10:55:26;21.00;99.90
11540;DHT22;5826;54.756;9.192;2022-07-09T10:57:52;20.80;99.90
11540;DHT22;5826;54.756;9.192;2022-07-09T11:00:20;20.70;99.90
11540;DHT22;5826;54.756;9.192;2022-07-09T11:03:04;20.80;99.90
11540;DHT22;5826;54.756;9.192;2022-07-09T11:05:34;21.00;99.90
11540;DHT22;5826;54.756;9.192;2022-07-09T11:08:08;21.00;99.90
11540;DHT22;5826;54.756;9.192;2022-07-09T11:10:39;20.90;99.90
11540;DHT22;5826;54.756;9.192;2022-07-09T11:13:07;20.90;99.90
11540;DHT22;5826;54.756;9.192;2022-07-09T11:15:35;20.80;99.90
11540;DHT22;5826;54.756;9.192;2022-07-09T11:18:19;20.80;99.90
11540;DHT22;5826;54.756;9.192;2022-07-09T11:20:46;20.80;99.90
11540;DHT22;5826;54.756;9.192;2022-07-09T11:23:16;20.80;99.90
11540;DHT22;5826;54.756;9.192;2022-07-09T11:25:44;20.80;99.90
11540;DHT22;5826;54.756;9.192;2022-07-09T11:28:25;20.70;99.90
11540;DHT22;5826;54.756;9.192;2022-07-09T11:31:02;20.60;99.90
11540;DHT22;5826;54.756;9.192;2022-07-09T11:33:29;20.50;99.90
11540;DHT22;5826;54.756;9.192;2022-07-09T11:36:14;20.30;99.90
11540;DHT22;5826;54.756;9.192;2022-07-09T11:38:50;20.20;99.90
11540;DHT22;5826;54.756;9.192;2022-07-09T11:41:16;20.30;99.90
11540;DHT22;5826;54.756;9.192;2022-07-09T11:43:49;20.20;99.90
11540;DHT22;5826;54.756;9.192;2022-07-09T11:46:17;20.00;99.90
11540;DHT22;5826;54.756;9.192;2022-07-09T11:48:50;19.90;99.90
11540;DHT22;5826;54.756;9.192;2022-07-09T11:51:32;19.90;99.90
11540;DHT22;5826;54.756;9.192;2022-07-09T11:53:59;19.90;99.90
11540;DHT22;5826;54.756;9.192;2022-07-09T11:56:25;20.00;99.90
11540;DHT22;5826;54.756;9.192;2022-07-09T11:58:51;20.00;99.90
11540;DHT22;5826;54.756;9.192;2022-07-09T12:01:17;20.00;99.90
11540;DHT22;5826;54.756;9.192;2022-07-09T12:03:47;20.00;99.90
11540;DHT22;5826;54.756;9.192;2022-07-09T12:06:13;19.90;99.90
11540;DHT22;5826;54.756;9.192;2022-07-09T12:08:40;19.80;99.90
11540;DHT22;5826;54.756;9.192;2022-07-09T12:11:05;19.80;99.90
11540;DHT22;5826;54.756;9.192;2022-07-09T12:13:31;19.90;99.90
11540;DHT22;5826;54.756;9.192;2022-07-09T12:15:57;19.90;99.90
11540;DHT22;5826;54.756;9.192;2022-07-09T12:18:22;20.10;99.90
11540;DHT22;5826;54.756;9.192;2022-07-09T12:20:48;20.30;99.90
11540;DHT22;5826;54.756;9.192;2022-07-09T12:23:13;20.30;99.90
11540;DHT22;5826;54.756;9.192;2022-07-09T12:25:40;20.20;99.90
11540;DHT22;5826;54.756;9.192;2022-07-09T12:28:06;20.10;99.90
11540;DHT22;5826;54.756;9.192;2022-07-09T12:30:31;19.90;99.90
11540;DHT22;5826;54.756;9.192;2022-07-09T12:32:57;19.90;99.90
11540;DHT22;5826;54.756;9.192;2022-07-09T12:35:26;19.90;99.90
11540;DHT22;5826;54.756;9.192;2022-07-09T12:37:52;19.90;99.90
11540;DHT22;5826;54.756;9.192;2022-07-09T12:40:18;20.10;99.90
11540;DHT22;5826;54.756;9.192;2022-07-09T12:42:44;20.20;99.90
11540;DHT22;5826;54.756;9.192;2022-07-09T12:45:10;20.50;99.90
11540;DHT22;5826;54.756;9.192;2022-07-09T12:47:36;20.80;99.90
11540;DHT22;5826;54.756;9.192;2022-07-09T12:50:01;21.00;99.90
11540;DHT22;5826;54.756;9.192;2022-07-09T12:52:32;21.20;99.90
11540;DHT22;5826;54.756;9.192;2022-07-09T12:55:03;21.20;99.90
11540;DHT22;5826;54.756;9.192;2022-07-09T12:57:29;21.30;99.90
11540;DHT22;5826;54.756;9.192;2022-07-09T12:59:55;21.10;99.90
11540;DHT22;5826;54.756;9.192;2022-07-09T13:02:21;21.00;99.90
11540;DHT22;5826;54.756;9.192;2022-07-09T13:04:46;21.00;99.90
11540;DHT22;5826;54.756;9.192;2022-07-09T13:07:12;20.90;99.90
11540;DHT22;5826;54.756;9.192;2022-07-09T13:09:39;20.90;99.90
11540;DHT22;5826;54.756;9.192;2022-07-09T13:12:04;21.10;99.90
11540;DHT22;5826;54.756;9.192;2022-07-09T13:14:30;21.40;99.90
11540;DHT22;5826;54.756;9.192;2022-07-09T13:16:55;21.70;99.90
11540;DHT22;5826;54.756;9.192;2022-07-09T13:19:21;21.60;99.90
11540;DHT22;5826;54.756;9.192;2022-07-09T13:21:47;21.40;99.90
11540;DHT22;5826;54.756;9.192;2022-07-09T13:24:12;21.00;99.90
11540;DHT22;5826;54.756;9.192;2022-07-09T13:26:38;20.60;99.90
11540;DHT22;5826;54.756;9.192;2022-07-09T13:29:03;20.30;99.90
11540;DHT22;5826;54.756;9.192;2022-07-09T13:31:29;20.10;99.90
11540;DHT22;5826;54.756;9.192;2022-07-09T13:33:54;20.20;99.90
11540;DHT22;5826;54.756;9.192;2022-07-09T13:36:20;20.30;99.90
11540;DHT22;5826;54.756;9.192;2022-07-09T13:38:45;20.30;99.90
11540;DHT22;5826;54.756;9.192;2022-07-09T13:41:11;20.20;99.90
11540;DHT22;5826;54.756;9.192;2022-07-09T13:43:36;20.10;99.90
11540;DHT22;5826;54.756;9.192;2022-07-09T13:46:02;20.10;99.90
11540;DHT22;5826;54.756;9.192;2022-07-09T13:48:29;20.20;99.90
11540;DHT22;5826;54.756;9.192;2022-07-09T13:50:55;20.30;99.90
11540;DHT22;5826;54.756;9.192;2022-07-09T13:53:20;20.30;99.90
11540;DHT22;5826;54.756;9.192;2022-07-09T13:55:46;20.70;99.90
11540;DHT22;5826;54.756;9.192;2022-07-09T13:58:12;20.90;99.90
11540;DHT22;5826;54.756;9.192;2022-07-09T14:00:38;21.10;99.90
11540;DHT22;5826;54.756;9.192;2022-07-09T14:03:03;21.30;99.90
11540;DHT22;5826;54.756;9.192;2022-07-09T14:05:29;21.50;99.90
11540;DHT22;5826;54.756;9.192;2022-07-09T14:07:55;21.40;99.90
11540;DHT22;5826;54.756;9.192;2022-07-09T14:10:21;21.00;99.90
11540;DHT22;5826;54.756;9.192;2022-07-09T14:12:47;20.50;99.90
11540;DHT22;5826;54.756;9.192;2022-07-09T14:15:13;20.20;99.90
11540;DHT22;5826;54.756;9.192;2022-07-09T14:17:39;19.90;99.90
11540;DHT22;5826;54.756;9.192;2022-07-09T14:20:05;19.70;99.90
11540;DHT22;5826;54.756;9.192;2022-07-09T14:22:34;19.60;99.90
11540;DHT22;5826;54.756;9.192;2022-07-09T14:24:59;19.50;99.90
11540;DHT22;5826;54.756;9.192;2022-07-09T14:27:25;19.50;99.90
11540;DHT22;5826;54.756;9.192;2022-07-09T14:29:50;19.30;99.90
11540;DHT22;5826;54.756;9.192;2022-07-09T14:32:16;19.20;99.90
11540;DHT22;5826;54.756;9.192;2022-07-09T14:34:41;19.10;99.90
11540;DHT22;5826;54.756;9.192;2022-07-09T14:37:07;19.20;99.90
11540;DHT22;5826;54.756;9.192;2022-07-09T14:39:32;19.20;99.90
11540;DHT22;5826;54.756;9.192;2022-07-09T14:41:58;19.20;99.90
11540;DHT22;5826;54.756;9.192;2022-07-09T14:44:24;19.10;99.90
11540;DHT22;5826;54.756;9.192;2022-07-09T14:46:49;19.00;99.90
11540;DHT22;5826;54.756;9.192;2022-07-09T14:49:15;18.90;99.90
11540;DHT22;5826;54.756;9.192;2022-07-09T14:51:41;18.60;99.90
11540;DHT22;5826;54.756;9.192;2022-07-09T14:54:07;18.50;99.90
11540;DHT22;5826;54.756;9.192;2022-07-09T14:56:32;18.70;99.90
11540;DHT22;5826;54.756;9.192;2022-07-09T14:58:58;18.90;99.90
11540;DHT22;5826;54.756;9.192;2022-07-09T15:01:24;19.00;99.90
11540;DHT22;5826;54.756;9.192;2022-07-09T15:03:50;19.20;99.90
11540;DHT22;5826;54.756;9.192;2022-07-09T15:06:15;19.20;99.90
11540;DHT22;5826;54.756;9.192;2022-07-09T15:08:42;19.30;99.90
11540;DHT22;5826;54.756;9.192;2022-07-09T15:11:09;19.20;99.90
11540;DHT22;5826;54.756;9.192;2022-07-09T15:13:35;19.30;99.90
11540;DHT22;5826;54.756;9.192;2022-07-09T15:16:01;19.30;99.90
11540;DHT22;5826;54.756;9.192;2022-07-09T15:18:26;19.50;99.90
11540;DHT22;5826;54.756;9.192;2022-07-09T15:20:52;19.60;99.90
11540;DHT22;5826;54.756;9.192;2022-07-09T15:23:17;19.60;99.90
11540;DHT22;5826;54.756;9.192;2022-07-09T15:25:43;19.50;99.90
11540;DHT22;5826;54.756;9.192;2022-07-09T15:28:08;19.20;99.90
11540;DHT22;5826;54.756;9.192;2022-07-09T15:30:38;18.90;99.90
11540;DHT22;5826;54.756;9.192;2022-07-09T15:33:04;18.80;99.90
11540;DHT22;5826;54.756;9.192;2022-07-09T15:35:29;18.60;99.90
11540;DHT22;5826;54.756;9.192;2022-07-09T15:37:55;18.50;99.90
11540;DHT22;5826;54.756;9.192;2022-07-09T15:40:20;18.30;99.90
11540;DHT22;5826;54.756;9.192;2022-07-09T15:42:46;18.10;99.90